Time;durP1;ratioP1;P1;durP2;ratioP2;P2;SDS_P1;SDS_P2;PMS_P1;PMS_P2;Temp;Humidity;BMP_temperature;BMP_pressure;BME280_temperature;BME280_humidity;BME280_pressure;Samples;Min_cycle;Max_cycle;Signal;HPM_P1;HPM_P2
2022/04/28 00:00:17;;;;;;;8.60;7.90;;;10.00;99.90;;;;;;5096142;28;20415;-70
2022/04/28 00:02:42;;;;;;;9.20;8.37;;;10.00;99.90;;;;;;5096394;28;20228;-70
2022/04/28 00:05:09;;;;;;;8.50;7.70;;;10.00;99.90;;;;;;5096753;28;20445;-70
2022/04/28 00:07:35;;;;;;;9.47;8.53;;;10.00;99.90;;;;;;5096556;28;20542;-70
2022/04/28 00:10:01;;;;;;;9.70;8.50;;;10.00;99.90;;;;;;5096710;28;20414;-70
2022/04/28 00:12:27;;;;;;;7.80;7.07;;;10.00;99.90;;;;;;5101821;28;20423;-70
2022/04/28 00:14:53;;;;;;;8.43;7.63;;;10.00;99.90;;;;;;5094958;28;20421;-70
2022/04/28 00:17:19;;;;;;;8.50;7.70;;;9.90;99.90;;;;;;5107732;28;20178;-70
2022/04/28 00:19:44;;;;;;;9.10;8.30;;;9.80;99.90;;;;;;5099169;28;20202;-70
2022/04/28 00:22:10;;;;;;;7.50;6.80;;;9.80;99.90;;;;;;5110246;28;20208;-70
2022/04/28 00:24:35;;;;;;;9.47;8.57;;;9.80;99.90;;;;;;5109233;28;20190;-70
2022/04/28 00:27:01;;;;;;;9.30;8.47;;;9.80;99.90;;;;;;5100668;28;20196;-70
2022/04/28 00:29:26;;;;;;;9.87;8.03;;;9.70;99.90;;;;;;5095802;28;20168;-70
2022/04/28 00:31:52;;;;;;;9.67;8.67;;;9.70;99.90;;;;;;5095839;28;20668;-70
2022/04/28 00:34:17;;;;;;;10.53;7.97;;;9.60;99.90;;;;;;5095957;28;20176;-70
2022/04/28 00:36:43;;;;;;;9.60;8.70;;;9.60;99.90;;;;;;5095595;28;20197;-70
2022/04/28 00:39:08;;;;;;;10.73;9.70;;;9.60;99.90;;;;;;5095744;28;20169;-70
2022/04/28 00:41:34;;;;;;;9.70;8.90;;;9.50;99.90;;;;;;5095888;28;20192;-70
2022/04/28 00:44:00;;;;;;;10.90;9.67;;;9.50;99.90;;;;;;5095648;28;20173;-70
2022/04/28 00:46:26;;;;;;;8.60;7.80;;;9.40;99.90;;;;;;5095969;28;20214;-68
2022/04/28 00:51:36;;;;;;;9.20;8.40;;;9.40;99.90;;;;;;5117803;22;20481;-74
2022/04/28 00:54:04;;;;;;;9.93;9.03;;;9.40;99.90;;;;;;5054086;28;20424;-76
2022/04/28 00:56:30;;;;;;;9.00;8.10;;;9.40;99.90;;;;;;5054988;28;20642;-76
2022/04/28 00:59:02;;;;;;;9.07;8.20;;;9.40;99.90;;;;;;5054786;28;20451;-77
2022/04/28 01:01:31;;;;;;;8.43;7.73;;;9.30;99.90;;;;;;5054967;28;20874;-76
2022/04/28 01:03:57;;;;;;;10.37;9.37;;;9.40;99.90;;;;;;5054703;28;20813;-76
2022/04/28 01:06:23;;;;;;;8.80;7.80;;;9.40;99.90;;;;;;5054392;28;20447;-77
2022/04/28 01:08:49;;;;;;;8.70;7.90;;;9.40;99.90;;;;;;5054079;28;20231;-77
2022/04/28 01:11:16;;;;;;;9.73;8.80;;;9.30;99.90;;;;;;5054499;28;20165;-76
2022/04/28 01:13:42;;;;;;;9.13;8.23;;;9.40;99.90;;;;;;5054470;28;20625;-76
2022/04/28 01:16:08;;;;;;;11.47;9.50;;;9.30;99.90;;;;;;5052102;28;20432;-76
2022/04/28 01:18:33;;;;;;;9.93;8.33;;;9.30;99.90;;;;;;5036514;28;20993;-76
2022/04/28 01:21:05;;;;;;;10.93;8.93;;;9.40;99.90;;;;;;5054239;28;20185;-76
2022/04/28 01:23:34;;;;;;;10.47;9.47;;;9.40;99.90;;;;;;5054182;28;20695;-77
2022/04/28 01:26:00;;;;;;;10.23;9.33;;;9.40;99.90;;;;;;5054141;28;20983;-77
2022/04/28 01:28:33;;;;;;;9.17;8.40;;;9.40;99.90;;;;;;5052984;28;20502;-76
2022/04/28 01:31:05;;;;;;;9.23;7.90;;;9.40;99.90;;;;;;5053137;28;20926;-77
2022/04/28 01:33:31;;;;;;;10.67;8.50;;;9.30;99.90;;;;;;5054101;28;20416;-76
2022/04/28 01:35:57;;;;;;;10.57;9.30;;;9.20;99.90;;;;;;5054462;28;20932;-76
2022/04/28 01:38:22;;;;;;;8.27;7.47;;;9.20;99.90;;;;;;5054605;28;20402;-76
2022/04/28 01:40:48;;;;;;;10.57;9.13;;;9.20;99.90;;;;;;5054793;28;20533;-76
2022/04/28 01:43:14;;;;;;;8.70;7.90;;;9.20;99.90;;;;;;5054533;28;20186;-76
2022/04/28 01:45:39;;;;;;;13.27;9.77;;;9.30;99.90;;;;;;5054069;28;20569;-76
2022/04/28 01:48:05;;;;;;;8.30;7.47;;;9.20;99.90;;;;;;5054004;28;20662;-77
2022/04/28 01:50:30;;;;;;;8.70;7.90;;;9.30;99.90;;;;;;5054461;28;20188;-76
2022/04/28 01:55:40;;;;;;;8.50;7.80;;;9.20;99.90;;;;;;5054855;28;20207;-77
2022/04/28 01:58:06;;;;;;;9.03;8.20;;;9.20;99.90;;;;;;5037116;28;20421;-77
2022/04/28 02:00:32;;;;;;;8.60;7.80;;;9.10;99.90;;;;;;5054388;28;20163;-76
2022/04/28 02:02:57;;;;;;;9.53;8.30;;;9.10;99.90;;;;;;5036995;28;20727;-77
2022/04/28 02:05:23;;;;;;;8.20;6.90;;;9.00;99.90;;;;;;5054048;28;20514;-76
2022/04/28 02:07:49;;;;;;;8.00;7.30;;;9.00;99.90;;;;;;5035897;28;20207;-76
2022/04/28 02:10:15;;;;;;;7.67;7.00;;;9.00;99.90;;;;;;5035846;28;20422;-77
2022/04/28 02:12:40;;;;;;;8.87;7.77;;;9.00;99.90;;;;;;5053816;28;20267;-76
2022/04/28 02:15:06;;;;;;;9.53;8.67;;;9.00;99.90;;;;;;5035736;28;20184;-76
2022/04/28 02:17:37;;;;;;;8.60;7.90;;;8.90;99.90;;;;;;5051772;28;20647;-77
2022/04/28 02:20:08;;;;;;;7.57;6.87;;;8.90;99.90;;;;;;5039677;28;20418;-77
2022/04/28 02:22:34;;;;;;;8.00;7.30;;;8.90;99.90;;;;;;5036672;28;20428;-77
2022/04/28 02:25:00;;;;;;;8.20;7.47;;;8.90;99.90;;;;;;5039619;28;20443;-75
2022/04/28 02:27:27;;;;;;;12.83;7.90;;;8.80;99.90;;;;;;5034106;28;20265;-75
2022/04/28 02:29:52;;;;;;;13.70;7.83;;;8.80;99.90;;;;;;5033374;28;20169;-75
2022/04/28 02:32:18;;;;;;;8.60;7.90;;;8.80;99.90;;;;;;5031769;28;20505;-76
2022/04/28 02:34:43;;;;;;;10.80;8.50;;;8.80;99.90;;;;;;5032275;28;20174;-76
2022/04/28 02:37:09;;;;;;;7.97;7.27;;;8.70;99.90;;;;;;5048940;28;20188;-77
2022/04/28 02:39:35;;;;;;;8.73;7.90;;;8.60;99.90;;;;;;5053101;28;20491;-77
2022/04/28 02:42:01;;;;;;;9.63;8.53;;;8.70;99.90;;;;;;5052956;28;20423;-77
2022/04/28 02:44:26;;;;;;;10.77;9.67;;;8.70;99.90;;;;;;5034842;28;20591;-77
2022/04/28 02:46:52;;;;;;;10.53;9.03;;;8.50;99.90;;;;;;5035054;28;20756;-76
2022/04/28 02:49:17;;;;;;;10.67;9.23;;;8.60;99.90;;;;;;5052965;28;20264;-77
2022/04/28 02:51:44;;;;;;;9.30;8.40;;;8.60;99.90;;;;;;5052761;28;20196;-76
2022/04/28 02:54:10;;;;;;;10.67;9.70;;;8.50;99.90;;;;;;5053236;28;20165;-77
2022/04/28 02:56:35;;;;;;;8.77;7.97;;;8.50;99.90;;;;;;5053413;28;20485;-76
2022/04/28 02:59:01;;;;;;;8.97;8.00;;;8.50;99.90;;;;;;5052544;28;20543;-76
2022/04/28 03:01:27;;;;;;;14.37;10.17;;;8.40;99.90;;;;;;5052607;28;20224;-76
2022/04/28 03:03:53;;;;;;;10.03;9.13;;;8.50;99.90;;;;;;5052816;28;20172;-76
2022/04/28 03:12:01;;;;;;;11.13;9.33;;;8.50;99.90;;;;;;5053321;28;20453;-77
2022/04/28 03:14:27;;;;;;;10.80;9.80;;;8.40;99.90;;;;;;5052814;28;20429;-77
2022/04/28 03:16:52;;;;;;;10.77;9.67;;;8.40;99.90;;;;;;5053385;28;20959;-77
2022/04/28 03:19:18;;;;;;;12.83;10.30;;;8.40;99.90;;;;;;5053236;28;20187;-77
2022/04/28 03:21:44;;;;;;;11.77;10.57;;;8.30;99.90;;;;;;5053683;28;20204;-77
2022/04/28 03:24:10;;;;;;;10.57;9.47;;;8.40;99.90;;;;;;5035817;28;20176;-76
2022/04/28 03:26:37;;;;;;;12.23;10.90;;;8.40;99.90;;;;;;5053794;28;20189;-77
2022/04/28 03:29:03;;;;;;;10.10;8.97;;;8.40;99.90;;;;;;5035276;28;20422;-77
2022/04/28 03:31:28;;;;;;;10.67;9.57;;;8.40;99.90;;;;;;5053220;28;20472;-77
2022/04/28 03:33:54;;;;;;;11.03;9.20;;;8.30;99.90;;;;;;5053000;28;20172;-77
2022/04/28 03:37:20;;;;;;;10.60;9.50;;;8.30;99.90;;;;;;5053848;28;20172;-76
2022/04/28 03:39:14;;;;;;;11.37;10.37;;;8.40;99.90;;;;;;5040202;28;20180;-77
2022/04/28 03:41:40;;;;;;;12.30;10.40;;;8.30;99.90;;;;;;5053347;28;20497;-77
2022/04/28 03:44:06;;;;;;;13.03;10.90;;;8.40;99.90;;;;;;5035121;28;20177;-77
2022/04/28 03:46:32;;;;;;;11.73;10.53;;;8.40;99.90;;;;;;5053095;28;20957;-77
2022/04/28 03:48:57;;;;;;;11.43;10.33;;;8.40;99.90;;;;;;5034967;28;20173;-76
2022/04/28 03:51:23;;;;;;;12.83;11.00;;;8.30;99.90;;;;;;5052440;28;20585;-77
2022/04/28 03:53:49;;;;;;;12.90;11.50;;;8.30;99.90;;;;;;5053564;28;20227;-76
2022/04/28 03:56:15;;;;;;;11.10;10.00;;;8.30;99.90;;;;;;5056005;28;20646;-76
2022/04/28 03:58:40;;;;;;;11.23;10.17;;;8.20;99.90;;;;;;5037765;28;20173;-76
2022/04/28 04:01:06;;;;;;;12.20;11.00;;;8.20;99.90;;;;;;5037260;28;20426;-76
2022/04/28 04:03:31;;;;;;;11.80;10.60;;;8.20;99.90;;;;;;5055681;28;20292;-76
2022/04/28 04:05:58;;;;;;;13.67;12.37;;;8.10;99.90;;;;;;5055949;28;20551;-75
2022/04/28 04:08:24;;;;;;;11.90;10.70;;;8.20;99.90;;;;;;5055846;28;20172;-76
2022/04/28 04:10:49;;;;;;;12.80;11.63;;;8.10;99.90;;;;;;5056026;28;20414;-76
2022/04/28 04:13:15;;;;;;;12.40;11.20;;;8.10;99.90;;;;;;5055348;28;20204;-76
2022/04/28 04:15:41;;;;;;;15.63;11.70;;;8.10;99.90;;;;;;5055520;28;20169;-76
2022/04/28 04:18:08;;;;;;;12.23;11.03;;;8.10;99.90;;;;;;5055662;28;20817;-76
2022/04/28 04:20:34;;;;;;;13.97;12.60;;;8.00;99.90;;;;;;5055747;28;20207;-75
2022/04/28 04:23:04;;;;;;;11.67;10.57;;;8.10;99.90;;;;;;5038046;28;20489;-76
2022/04/28 04:25:29;;;;;;;12.67;11.43;;;8.10;99.90;;;;;;5035724;28;20464;-78
2022/04/28 04:27:55;;;;;;;13.50;12.10;;;8.00;99.90;;;;;;5055211;28;20410;-76
2022/04/28 04:33:05;;;;;;;14.80;13.30;;;8.10;99.90;;;;;;5055372;28;20199;-77
2022/04/28 04:35:30;;;;;;;14.80;12.83;;;8.10;99.90;;;;;;5033663;28;20831;-77
2022/04/28 04:37:56;;;;;;;13.90;12.43;;;8.00;99.90;;;;;;5045840;28;20194;-79
2022/04/28 04:40:22;;;;;;;14.07;12.67;;;8.10;99.90;;;;;;5027925;28;20267;-78
2022/04/28 04:42:48;;;;;;;14.10;12.60;;;8.00;99.90;;;;;;5045443;28;20200;-76
2022/04/28 04:45:14;;;;;;;15.53;13.40;;;8.10;99.90;;;;;;5027571;28;20187;-77
2022/04/28 04:47:39;;;;;;;14.33;12.83;;;8.10;99.90;;;;;;5045157;28;20425;-76
2022/04/28 04:50:07;;;;;;;14.70;13.17;;;8.10;99.90;;;;;;5027483;28;20418;-76
2022/04/28 04:52:33;;;;;;;13.93;12.17;;;8.10;99.90;;;;;;5045281;28;20224;-77
2022/04/28 04:54:59;;;;;;;13.00;11.70;;;8.20;99.90;;;;;;5046329;28;20406;-76
2022/04/28 04:57:24;;;;;;;15.67;13.73;;;8.30;99.90;;;;;;5054237;28;20405;-76
2022/04/28 04:59:50;;;;;;;14.40;13.00;;;8.30;99.90;;;;;;5054661;28;20215;-76
2022/04/28 05:02:16;;;;;;;13.57;12.27;;;8.40;99.90;;;;;;5054766;28;20184;-76
2022/04/28 05:04:42;;;;;;;15.60;13.97;;;8.40;99.90;;;;;;5053830;28;20460;-76
2022/04/28 05:07:07;;;;;;;16.57;14.93;;;8.50;99.90;;;;;;5054426;28;20211;-76
2022/04/28 05:09:34;;;;;;;16.17;14.30;;;8.50;99.90;;;;;;5054573;28;20653;-76
2022/04/28 05:11:59;;;;;;;16.43;13.43;;;8.50;99.90;;;;;;5036810;28;20203;-76
2022/04/28 05:14:25;;;;;;;15.80;14.30;;;8.60;99.90;;;;;;5053159;28;20761;-76
2022/04/28 05:16:50;;;;;;;18.53;15.33;;;8.50;99.90;;;;;;5036609;28;20199;-76
2022/04/28 05:19:16;;;;;;;14.93;13.33;;;8.50;99.90;;;;;;5053057;28;20168;-75
2022/04/28 05:21:42;;;;;;;15.77;14.17;;;8.60;99.90;;;;;;5036536;28;20177;-76
2022/04/28 05:24:07;;;;;;;17.10;15.40;;;8.60;99.90;;;;;;5054530;28;20188;-76
2022/04/28 05:26:33;;;;;;;18.23;14.50;;;8.60;99.90;;;;;;5054329;28;20444;-76
2022/04/28 05:28:58;;;;;;;18.07;15.30;;;8.70;99.90;;;;;;5046207;28;20711;-76
2022/04/28 05:31:24;;;;;;;16.03;14.50;;;8.80;99.90;;;;;;5034444;28;20170;-76
2022/04/28 05:33:50;;;;;;;14.80;13.20;;;8.80;99.90;;;;;;5016407;28;20192;-76
2022/04/28 05:36:15;;;;;;;15.17;13.70;;;8.80;99.90;;;;;;5034279;28;20172;-76
2022/04/28 05:38:42;;;;;;;15.07;13.77;;;8.90;99.90;;;;;;5023817;28;20174;-76
2022/04/28 05:41:08;;;;;;;14.63;13.27;;;8.90;99.90;;;;;;5034014;28;20411;-75
2022/04/28 05:46:23;;;;;;;15.00;13.43;;;9.10;99.90;;;;;;5053816;28;20982;-76
2022/04/28 05:48:49;;;;;;;15.17;13.50;;;9.30;99.90;;;;;;5053745;28;20419;-76
2022/04/28 05:51:15;;;;;;;13.50;12.23;;;9.40;99.90;;;;;;5054251;28;20427;-76
2022/04/28 05:53:40;;;;;;;15.93;14.00;;;9.40;99.90;;;;;;5053841;28;20262;-76
2022/04/28 05:56:06;;;;;;;15.00;13.40;;;9.60;99.90;;;;;;5053928;28;20188;-76
2022/04/28 05:58:32;;;;;;;13.80;12.30;;;9.60;99.90;;;;;;5053661;28;20580;-77
2022/04/28 06:00:59;;;;;;;15.93;14.23;;;9.80;99.90;;;;;;5053366;28;20490;-76
2022/04/28 06:03:25;;;;;;;18.20;16.30;;;9.90;99.90;;;;;;5053831;28;20516;-76
2022/04/28 06:05:50;;;;;;;16.00;14.40;;;10.00;99.90;;;;;;5053460;28;20649;-76
2022/04/28 06:08:16;;;;;;;15.10;13.80;;;10.10;99.90;;;;;;5053436;28;20909;-77
2022/04/28 06:10:42;;;;;;;13.63;12.23;;;10.30;99.90;;;;;;5053639;28;20166;-76
2022/04/28 06:13:08;;;;;;;13.10;11.47;;;10.40;99.90;;;;;;5053312;28;20198;-76
2022/04/28 06:15:33;;;;;;;14.37;12.93;;;10.60;99.90;;;;;;5035144;28;20177;-77
2022/04/28 06:17:59;;;;;;;15.77;14.27;;;10.70;99.90;;;;;;5055203;28;20171;-77
2022/04/28 06:20:25;;;;;;;13.73;12.27;;;10.90;99.90;;;;;;5058174;28;20202;-77
2022/04/28 06:22:51;;;;;;;15.87;13.37;;;11.00;99.90;;;;;;5059630;28;20424;-77
2022/04/28 06:25:16;;;;;;;13.43;12.03;;;11.10;99.90;;;;;;5060078;28;20171;-77
2022/04/28 06:27:42;;;;;;;14.67;13.17;;;11.20;99.90;;;;;;5059972;28;20165;-77
2022/04/28 06:30:08;;;;;;;14.37;13.07;;;11.30;99.90;;;;;;5059147;28;20174;-77
2022/04/28 06:32:34;;;;;;;12.90;11.57;;;11.40;99.90;;;;;;5036529;28;20195;-78
2022/04/28 06:35:00;;;;;;;14.00;12.67;;;11.50;99.90;;;;;;5054033;28;20955;-77
2022/04/28 06:37:26;;;;;;;12.43;11.33;;;11.60;99.90;;;;;;5053470;28;20173;-78
2022/04/28 06:39:51;;;;;;;13.07;11.60;;;11.70;99.90;;;;;;5035837;28;20178;-77
2022/04/28 06:42:17;;;;;;;13.67;12.30;;;11.80;99.90;;;;;;5052673;28;20291;-80
2022/04/28 06:44:43;;;;;;;13.83;12.20;;;11.80;99.90;;;;;;5057548;28;20602;-80
2022/04/28 06:47:08;;;;;;;14.63;13.00;;;11.90;99.90;;;;;;5060280;28;20194;-83
2022/04/28 06:49:34;;;;;;;17.73;14.90;;;11.90;99.90;;;;;;5055282;28;20169;-80
2022/04/28 06:52:00;;;;;;;16.10;13.60;;;11.90;99.90;;;;;;5078499;23;20201;-69
2022/04/28 06:54:26;;;;;;;15.70;13.40;;;12.00;99.90;;;;;;5051546;28;20185;-69
2022/04/28 06:56:52;;;;;;;16.33;12.97;;;11.80;99.90;;;;;;5053081;28;20400;-70
2022/04/28 06:59:17;;;;;;;14.73;13.33;;;11.90;99.90;;;;;;5052617;28;20174;-69
2022/04/28 07:01:43;;;;;;;14.67;13.07;;;11.30;99.90;;;;;;5052929;28;20251;-70
2022/04/28 07:04:09;;;;;;;13.93;12.53;;;11.00;99.90;;;;;;5052645;28;20281;-71
2022/04/28 07:06:35;;;;;;;14.60;13.13;;;10.90;99.90;;;;;;5052921;28;20555;-71
2022/04/28 07:09:00;;;;;;;14.63;13.30;;;11.10;99.90;;;;;;5053230;28;20513;-70
2022/04/28 07:11:26;;;;;;;14.00;12.70;;;11.20;99.90;;;;;;5052798;28;20401;-70
2022/04/28 07:13:52;;;;;;;14.07;12.80;;;11.30;99.90;;;;;;5052538;28;20316;-69
2022/04/28 07:16:18;;;;;;;15.00;13.60;;;11.50;99.90;;;;;;5053050;28;20189;-72
2022/04/28 07:18:44;;;;;;;13.40;12.10;;;11.60;99.90;;;;;;5052764;28;20185;-69
2022/04/28 07:21:10;;;;;;;12.97;11.67;;;12.00;99.90;;;;;;5053045;28;20408;-70
2022/04/28 07:23:35;;;;;;;11.63;10.63;;;12.00;99.90;;;;;;5052663;28;20221;-70
2022/04/28 07:26:01;;;;;;;13.40;12.00;;;12.10;99.90;;;;;;5052682;28;20320;-71
2022/04/28 07:28:26;;;;;;;11.60;10.50;;;12.30;99.90;;;;;;5053719;28;20166;-71
2022/04/28 07:30:52;;;;;;;10.37;9.37;;;12.30;99.90;;;;;;5055248;28;20202;-71
2022/04/28 07:33:17;;;;;;;10.87;9.77;;;12.20;99.90;;;;;;5056491;28;20191;-69
2022/04/28 07:35:43;;;;;;;11.63;10.53;;;12.20;99.90;;;;;;5055616;28;20259;-69
2022/04/28 07:38:09;;;;;;;10.47;9.50;;;12.40;99.90;;;;;;5056485;28;20186;-69
2022/04/28 07:40:36;;;;;;;12.20;11.07;;;12.40;99.90;;;;;;5062296;28;20171;-72
2022/04/28 07:43:02;;;;;;;12.53;11.20;;;12.40;99.90;;;;;;5059331;28;20185;-70
2022/04/28 07:45:28;;;;;;;13.43;12.23;;;12.40;99.90;;;;;;5056615;28;20898;-71
2022/04/28 07:47:54;;;;;;;11.73;10.63;;;12.50;99.90;;;;;;5058426;28;20466;-72
2022/04/28 07:50:20;;;;;;;13.77;11.87;;;12.60;99.90;;;;;;5059029;28;20246;-69
2022/04/28 07:52:46;;;;;;;13.00;11.00;;;12.90;99.90;;;;;;5056659;28;20494;-70
2022/04/28 07:55:12;;;;;;;10.20;9.20;;;13.10;99.90;;;;;;5056191;28;20819;-71
2022/04/28 07:57:38;;;;;;;12.43;11.13;;;13.10;99.90;;;;;;5056126;28;20584;-71
2022/04/28 08:00:07;;;;;;;11.70;9.80;;;13.30;99.90;;;;;;5055640;28;20411;-69
2022/04/28 08:02:33;;;;;;;14.10;10.90;;;13.50;99.90;;;;;;5055851;28;20196;-69
2022/04/28 08:04:59;;;;;;;11.70;10.60;;;13.50;99.90;;;;;;5055823;28;20484;-68
2022/04/28 08:07:25;;;;;;;14.47;9.87;;;13.60;99.90;;;;;;5055529;28;20606;-69
2022/04/28 08:09:51;;;;;;;15.33;9.87;;;13.60;99.90;;;;;;5056086;28;20417;-68
2022/04/28 08:12:17;;;;;;;10.80;9.60;;;13.70;99.90;;;;;;5054422;28;20443;-69
2022/04/28 08:14:43;;;;;;;9.60;8.70;;;13.90;99.90;;;;;;5055514;28;20413;-68
2022/04/28 08:17:08;;;;;;;9.13;8.23;;;14.10;99.90;;;;;;5055692;28;20404;-68
2022/04/28 08:19:34;;;;;;;9.23;7.63;;;14.20;99.90;;;;;;5055767;28;20177;-70
2022/04/28 08:22:00;;;;;;;8.87;7.80;;;14.10;99.90;;;;;;5056152;28;20211;-69
2022/04/28 08:24:26;;;;;;;8.50;7.60;;;14.30;99.90;;;;;;5055708;28;20462;-70
2022/04/28 08:26:52;;;;;;;9.43;8.20;;;14.50;99.90;;;;;;5055417;28;20447;-73
2022/04/28 08:29:18;;;;;;;9.80;8.80;;;14.60;99.90;;;;;;5054270;28;20245;-71
2022/04/28 08:31:44;;;;;;;8.27;7.57;;;14.60;99.90;;;;;;5047421;28;21024;-70
2022/04/28 08:34:11;;;;;;;8.17;7.37;;;14.80;99.90;;;;;;5055751;28;20183;-69
2022/04/28 08:36:37;;;;;;;7.50;6.77;;;14.90;99.90;;;;;;5063505;28;20423;-71
2022/04/28 08:39:03;;;;;;;7.20;6.60;;;14.70;99.90;;;;;;5071193;28;20419;-68
2022/04/28 08:41:33;;;;;;;6.53;6.00;;;14.70;99.90;;;;;;5055729;28;20179;-69
2022/04/28 08:44:02;;;;;;;7.70;6.93;;;15.00;99.90;;;;;;5054929;28;20503;-68
2022/04/28 08:49:13;;;;;;;7.30;6.60;;;15.40;99.90;;;;;;5055294;28;20411;-71
2022/04/28 08:51:40;;;;;;;8.73;5.87;;;15.30;99.90;;;;;;5055361;28;20413;-70
2022/04/28 08:54:09;;;;;;;7.47;6.80;;;15.40;99.90;;;;;;5054845;28;20857;-69
2022/04/28 08:56:34;;;;;;;7.20;6.60;;;15.60;99.90;;;;;;5054953;28;20509;-70
2022/04/28 08:59:00;;;;;;;6.87;6.27;;;15.60;99.90;;;;;;5054978;28;20816;-70
2022/04/28 09:01:27;;;;;;;10.43;7.20;;;15.60;99.90;;;;;;5055232;28;20177;-69
2022/04/28 09:03:57;;;;;;;7.43;6.73;;;15.60;99.90;;;;;;5054982;28;20186;-71
2022/04/28 09:06:25;;;;;;;6.33;5.83;;;15.80;99.90;;;;;;5053587;28;20443;-71
2022/04/28 09:08:51;;;;;;;6.27;5.67;;;16.00;99.90;;;;;;5055037;28;20409;-71
2022/04/28 09:11:25;;;;;;;7.23;5.67;;;15.70;99.90;;;;;;5055220;28;20410;-71
2022/04/28 09:16:46;;;;;;;5.43;4.97;;;15.90;99.00;;;;;;5055001;28;20395;-71
2022/04/28 09:19:15;;;;;;;5.80;5.20;;;15.90;98.20;;;;;;5054396;28;20768;-70
2022/04/28 09:21:41;;;;;;;7.70;5.00;;;16.00;98.20;;;;;;5054552;28;20405;-71
2022/04/28 09:24:09;;;;;;;5.63;5.07;;;16.30;97.90;;;;;;5054724;28;20427;-72
2022/04/28 09:26:35;;;;;;;7.00;6.00;;;16.50;96.90;;;;;;5054341;28;20454;-71
2022/04/28 09:29:03;;;;;;;5.40;4.90;;;16.50;95.70;;;;;;5054100;28;20456;-71
2022/04/28 09:31:32;;;;;;;5.90;5.00;;;16.70;95.90;;;;;;5054838;28;20496;-72
2022/04/28 09:34:11;;;;;;;6.17;5.33;;;16.60;94.70;;;;;;5054298;28;20423;-72
2022/04/28 09:36:39;;;;;;;4.60;4.20;;;16.60;96.50;;;;;;5054520;28;20427;-71
2022/04/28 09:39:06;;;;;;;5.00;4.13;;;16.60;95.80;;;;;;5054520;28;20420;-70
2022/04/28 09:44:21;;;;;;;4.70;4.27;;;16.70;93.30;;;;;;5053550;28;20435;-71
2022/04/28 09:46:48;;;;;;;6.70;4.47;;;17.00;93.40;;;;;;5053952;28;20544;-70
2022/04/28 09:49:20;;;;;;;3.83;3.50;;;17.40;92.10;;;;;;5054367;28;20428;-70
2022/04/28 09:51:46;;;;;;;4.30;3.90;;;17.60;92.00;;;;;;5054164;28;20410;-71
2022/04/28 09:54:14;;;;;;;5.10;4.60;;;17.30;92.10;;;;;;5053838;28;21000;-71
2022/04/28 09:56:43;;;;;;;4.20;3.80;;;17.20;91.80;;;;;;5054162;28;20170;-71
2022/04/28 09:59:12;;;;;;;3.87;3.57;;;17.30;92.30;;;;;;5053667;28;20409;-71
2022/04/28 10:01:39;;;;;;;3.57;3.27;;;17.30;90.90;;;;;;5053928;28;20816;-71
2022/04/28 10:04:05;;;;;;;4.80;3.83;;;17.40;90.90;;;;;;5053844;28;20433;-71
2022/04/28 10:06:33;;;;;;;4.57;3.97;;;17.50;90.10;;;;;;5053605;28;20496;-72
2022/04/28 10:09:02;;;;;;;4.10;3.70;;;17.60;89.10;;;;;;5052709;28;20981;-72
2022/04/28 10:11:28;;;;;;;4.57;4.13;;;17.70;88.60;;;;;;5053846;28;20830;-71
2022/04/28 10:13:56;;;;;;;4.80;3.40;;;17.90;86.80;;;;;;5053610;28;20804;-70
2022/04/28 10:16:24;;;;;;;6.80;4.23;;;18.00;85.00;;;;;;5053319;28;20406;-71
2022/04/28 10:19:01;;;;;;;4.40;4.00;;;18.10;83.20;;;;;;5053839;28;20431;-71
2022/04/28 10:21:33;;;;;;;4.47;4.07;;;18.20;83.70;;;;;;5052382;28;20416;-71
2022/04/28 10:32:58;;;;;;;3.77;3.47;;;18.10;82.20;;;;;;5053756;28;20425;-71
2022/04/28 10:35:42;;;;;;;3.93;3.63;;;18.40;82.90;;;;;;5053926;28;20374;-72
2022/04/28 10:38:15;;;;;;;3.80;3.43;;;18.50;80.50;;;;;;5053482;28;20408;-71
2022/04/28 10:40:56;;;;;;;5.30;4.03;;;18.40;82.30;;;;;;5053745;28;20429;-71
2022/04/28 10:43:25;;;;;;;4.83;3.50;;;18.50;84.00;;;;;;5053320;28;20440;-72
2022/04/28 10:45:54;;;;;;;4.83;3.80;;;18.80;82.60;;;;;;5053261;28;20441;-71
2022/04/28 10:48:41;;;;;;;5.47;3.33;;;18.90;79.00;;;;;;5052308;28;20492;-69
2022/04/28 10:51:17;;;;;;;3.63;3.33;;;18.90;76.40;;;;;;5053250;28;20551;-71
2022/04/28 10:54:15;;;;;;;4.90;3.20;;;19.60;74.70;;;;;;5053123;28;20983;-69
2022/04/28 10:56:50;;;;;;;3.77;3.47;;;20.60;74.50;;;;;;5053361;28;20385;-70
2022/04/28 10:59:29;;;;;;;3.90;3.10;;;21.60;67.60;;;;;;5052981;28;20419;-69
2022/04/28 11:01:58;;;;;;;6.50;3.80;;;22.60;67.90;;;;;;5053432;28;20406;-70
2022/04/28 11:04:25;;;;;;;3.60;3.30;;;23.30;63.50;;;;;;5055783;28;20416;-70
2022/04/28 11:07:04;;;;;;;4.17;3.43;;;23.20;60.80;;;;;;5057646;28;20452;-68
2022/04/28 11:09:37;;;;;;;3.93;3.63;;;23.10;58.90;;;;;;5057746;28;20394;-68
2022/04/28 11:12:18;;;;;;;5.03;3.73;;;22.10;60.80;;;;;;5059624;28;20405;-69
2022/04/28 11:14:52;;;;;;;3.87;3.47;;;21.90;62.20;;;;;;5063759;28;20417;-69
2022/04/28 11:17:21;;;;;;;3.70;3.40;;;22.60;61.80;;;;;;5060388;28;20401;-70
2022/04/28 11:19:47;;;;;;;4.30;3.30;;;23.00;59.50;;;;;;5069865;28;20393;-70
2022/04/28 11:22:13;;;;;;;3.30;3.03;;;22.10;60.60;;;;;;5070418;28;20416;-71
2022/04/28 11:24:43;;;;;;;3.53;3.23;;;22.90;59.10;;;;;;5047633;28;20461;-68
2022/04/28 11:27:22;;;;;;;3.40;2.70;;;22.60;57.50;;;;;;5036887;28;20507;-69
2022/04/28 11:29:55;;;;;;;3.77;3.47;;;22.80;58.70;;;;;;5052212;28;20444;-69
2022/04/28 11:32:21;;;;;;;3.23;2.90;;;23.20;57.30;;;;;;5056627;28;20461;-70
2022/04/28 11:34:48;;;;;;;3.40;3.03;;;23.30;56.60;;;;;;5057251;28;20412;-69
2022/04/28 11:37:15;;;;;;;4.43;3.47;;;24.20;57.90;;;;;;5056920;28;20197;-71
2022/04/28 11:39:44;;;;;;;3.47;3.23;;;25.00;54.40;;;;;;5056183;28;20405;-70
2022/04/28 11:42:12;;;;;;;3.50;3.20;;;25.00;54.40;;;;;;5056185;28;20413;-70
2022/04/28 11:44:51;;;;;;;3.63;2.93;;;24.20;52.80;;;;;;5056323;28;20919;-69
2022/04/28 11:47:17;;;;;;;7.43;3.17;;;24.80;54.20;;;;;;5056971;28;20429;-71
2022/04/28 11:49:43;;;;;;;5.87;2.93;;;24.50;52.80;;;;;;5056247;28;20402;-71
2022/04/28 11:52:20;;;;;;;3.90;3.50;;;24.10;53.30;;;;;;5056345;28;20464;-72
2022/04/28 11:55:15;;;;;;;3.90;3.60;;;24.90;51.90;;;;;;5056599;28;20155;-73
2022/04/28 11:57:41;;;;;;;3.30;3.00;;;25.50;50.90;;;;;;5054834;28;20507;-72
2022/04/28 12:00:07;;;;;;;3.60;3.00;;;26.20;50.90;;;;;;5055689;28;20907;-72
2022/04/28 12:02:37;;;;;;;7.07;3.40;;;26.50;47.80;;;;;;5056318;28;20185;-72
2022/04/28 12:05:15;;;;;;;2.90;2.70;;;27.20;47.30;;;;;;5056364;28;20390;-72
2022/04/28 12:07:51;;;;;;;3.30;3.00;;;26.70;47.10;;;;;;5054739;28;20506;-70
2022/04/28 12:15:56;;;;;;;3.30;2.80;;;24.10;49.10;;;;;;5054897;28;20447;-69
2022/04/28 12:21:23;;;;;;;4.07;2.50;;;24.20;49.70;;;;;;5056053;28;20381;-70
2022/04/28 12:23:55;;;;;;;3.10;2.70;;;23.80;50.60;;;;;;5055712;28;20424;-71
2022/04/28 12:26:24;;;;;;;3.30;2.90;;;23.80;50.90;;;;;;5055518;28;20456;-72
2022/04/28 12:28:50;;;;;;;3.17;2.87;;;24.20;50.70;;;;;;5055817;28;20467;-71
2022/04/28 12:31:30;;;;;;;4.10;3.50;;;25.00;50.80;;;;;;5055346;28;20411;-71
2022/04/28 12:33:56;;;;;;;3.33;3.03;;;25.70;48.70;;;;;;5055549;28;20936;-71
2022/04/28 12:36:21;;;;;;;8.07;3.33;;;26.70;47.30;;;;;;5055396;28;20401;-71
2022/04/28 12:38:53;;;;;;;3.13;2.90;;;26.10;46.40;;;;;;5054167;28;20286;-71
2022/04/28 12:41:23;;;;;;;2.80;2.60;;;25.80;47.40;;;;;;5055535;28;20250;-70
2022/04/28 12:43:56;;;;;;;2.93;2.73;;;25.40;47.10;;;;;;5055011;28;20433;-70
2022/04/28 12:46:45;;;;;;;2.80;2.50;;;26.50;48.30;;;;;;5055162;28;20433;-71
2022/04/28 12:49:12;;;;;;;3.20;3.00;;;26.90;46.00;;;;;;5055636;28;20477;-68
2022/04/28 12:51:55;;;;;;;3.80;3.50;;;26.60;46.30;;;;;;5055032;28;20405;-69
2022/04/28 12:54:32;;;;;;;3.50;3.03;;;26.10;46.00;;;;;;5096364;22;20564;-75
2022/04/28 12:57:02;;;;;;;3.00;2.80;;;25.20;45.60;;;;;;5074782;28;20498;-75
2022/04/28 12:59:36;;;;;;;3.30;2.90;;;24.80;46.80;;;;;;5074890;28;20403;-75
2022/04/28 13:02:02;;;;;;;2.77;2.57;;;26.00;49.00;;;;;;5075110;28;20805;-75
2022/04/28 13:04:28;;;;;;;2.87;2.60;;;26.70;46.00;;;;;;5080982;28;20401;-77
2022/04/28 13:06:55;;;;;;;3.23;2.93;;;28.40;43.10;;;;;;5080164;28;20509;-76
2022/04/28 13:09:22;;;;;;;3.03;2.73;;;28.20;42.30;;;;;;5074505;28;20955;-77
2022/04/28 13:11:49;;;;;;;3.20;2.90;;;27.90;41.80;;;;;;5076329;28;20416;-76
2022/04/28 13:14:18;;;;;;;3.03;2.73;;;28.00;42.90;;;;;;5080110;28;20470;-78
2022/04/28 13:16:46;;;;;;;2.80;2.60;;;27.40;42.40;;;;;;5078224;28;20491;-76
2022/04/28 13:19:11;;;;;;;4.03;2.63;;;27.70;42.50;;;;;;5074325;28;20405;-76
2022/04/28 13:21:39;;;;;;;2.83;2.63;;;27.60;42.70;;;;;;5074399;28;20949;-76
2022/04/28 13:24:05;;;;;;;2.80;2.50;;;27.40;44.40;;;;;;5074394;28;20281;-76
2022/04/28 13:26:31;;;;;;;3.07;2.77;;;29.00;42.80;;;;;;5073283;28;20440;-76